Hlavní strana
METAR-TAF:

METAR-TAF

Letiště :

Letiště Madeira

Funchal, Madeira, Portugalsko

zeměpisná šířka: 32-41-52N, zeměpisná délka: 016-46-28W, výška: 59 m

Aktuální stav počasí

Zpráva byla vytvořena před 20 minutami, v 02:00 UTC
Severní vítr 9 kt, proměnlivý mezi severozápadním a severovýchodním
Teplota 21°C
Vlhkost vzduchu 69%
Tlak 1021 hPa
Viditelnost 10 km a více
Skoro jasno ve výšce 1500 ft

METAR: LPMA 170200Z 36009KT 310V050 9999 FEW015 21/15 Q1021

Čas: 03:20 (02:20 UTC)

Předpověď počasí

Zpráva byla vytvořena před 3 hodinami a 20 minutami, v 23:00 UTC
Předpověď platná od 17 v 00 UTC do 17 v 24 UTC
Severní vítr 12 kt
Viditelnost 10 km a více
Polojasno ve výšce 1500 ft
Pravděpodobnost 40% :
Dočasný
od 17 v 10 UTC do 17 v 18 UTC
vítr z různých směrů 8 kt s nárazy do 18 kt

TAF: LPMA 162300Z 1700/1724 01012KT 9999 SCT015 PROB40 TEMPO 1710/1718 VRB08G18KT

Stav a předpovědi počasí z více než 4 000 letišť (zprávy METAR a TAF).

Červené a žluté tečky na mapě představují dostupné meteorologické stanice.

Když kurzor umístíte na tečku, zobrazí se název stanice.

Pak kliknutím zobrazíte stav a předpověď počasí.

Chcete-li změnit mapu, kliknutím na zelené tlačítko se znaménkem +mapu přiblížíte, kliknutím na zelené tlačítko se znaménkem – mapu oddálíte a kliknutím na zelené šipky přejdete na sousední mapy.


METAR-TAF: